Time;durP1;ratioP1;P1;durP2;ratioP2;P2;SDS_P1;SDS_P2;PMS_P1;PMS_P2;Temp;Humidity;BMP_temperature;BMP_pressure;BME280_temperature;BME280_humidity;BME280_pressure;Samples;Min_cycle;Max_cycle;Signal;HPM_P1;HPM_P2
2022/11/24 00:00:00;;;;;;;69.77;27.00;;;2.40;99.90;;;;;;10464463;28;20028;-80
2022/11/24 00:05:00;;;;;;;62.23;22.00;;;2.40;99.90;;;;;;10466777;28;20035;-78
2022/11/24 00:10:01;;;;;;;48.27;19.97;;;2.40;99.90;;;;;;10480692;28;20094;-79
2022/11/24 00:15:02;;;;;;;59.23;21.73;;;2.30;99.90;;;;;;10455473;28;20040;-78
2022/11/24 00:20:03;;;;;;;56.57;22.07;;;2.30;99.90;;;;;;10470372;28;20461;-78
2022/11/24 00:25:04;;;;;;;56.87;21.30;;;2.30;99.90;;;;;;10456607;28;20095;-79
2022/11/24 00:30:05;;;;;;;49.77;20.17;;;2.20;99.90;;;;;;10467715;28;20567;-79
2022/11/24 00:35:06;;;;;;;57.13;21.63;;;2.10;99.90;;;;;;10461153;28;20541;-79
2022/11/24 00:40:07;;;;;;;49.27;18.90;;;2.10;99.90;;;;;;10451882;28;20029;-80
2022/11/24 00:45:08;;;;;;;49.37;21.17;;;2.10;99.90;;;;;;10471075;28;20045;-78
2022/11/24 00:50:09;;;;;;;57.97;23.03;;;2.00;99.90;;;;;;10466582;28;20045;-79
2022/11/24 00:55:09;;;;;;;54.57;20.87;;;2.00;99.90;;;;;;10472613;28;20498;-79
2022/11/24 01:00:10;;;;;;;58.23;21.47;;;1.90;99.90;;;;;;10468908;28;20451;-78
2022/11/24 01:05:11;;;;;;;56.53;21.93;;;2.00;99.90;;;;;;10479038;28;20032;-79
2022/11/24 01:10:11;;;;;;;57.33;22.03;;;1.90;99.90;;;;;;10491356;28;20376;-78
2022/11/24 01:15:12;;;;;;;57.93;24.47;;;1.90;99.90;;;;;;10483581;28;20649;-78
2022/11/24 01:20:13;;;;;;;52.70;20.67;;;1.80;99.90;;;;;;10478942;28;20035;-79
2022/11/24 01:25:14;;;;;;;59.20;22.63;;;1.80;99.90;;;;;;10450875;28;20493;-78
2022/11/24 01:30:14;;;;;;;49.47;20.50;;;1.80;99.90;;;;;;10448315;28;20036;-78
2022/11/24 01:35:15;;;;;;;44.53;18.53;;;1.80;99.90;;;;;;10449656;28;20428;-78
2022/11/24 01:40:15;;;;;;;60.10;21.23;;;1.90;99.90;;;;;;10447980;28;20170;-78
2022/11/24 01:45:39;;;;;;;48.73;19.80;;;2.00;99.90;;;;;;10446156;28;20610;-78
2022/11/24 01:50:41;;;;;;;47.37;20.13;;;2.00;99.90;;;;;;10421861;28;20056;-78
2022/11/24 01:55:42;;;;;;;62.17;22.83;;;2.10;99.90;;;;;;10448618;28;20108;-80
2022/11/24 02:00:44;;;;;;;55.53;21.10;;;2.10;99.90;;;;;;10446927;28;20039;-78
2022/11/24 02:06:05;;;;;;;59.23;21.50;;;2.00;99.90;;;;;;10448097;28;20413;-79
2022/11/24 02:11:05;;;;;;;57.40;22.43;;;2.10;99.90;;;;;;10445904;28;20068;-79
2022/11/24 02:16:08;;;;;;;63.27;23.07;;;2.00;99.90;;;;;;10445175;28;20560;-79
2022/11/24 02:21:11;;;;;;;62.63;24.13;;;2.00;99.90;;;;;;10447118;28;20028;-79
2022/11/24 02:26:30;;;;;;;68.03;24.00;;;2.00;99.90;;;;;;10446956;28;20452;-79
2022/11/24 02:31:31;;;;;;;57.00;21.47;;;1.90;99.90;;;;;;10444897;28;20055;-78
2022/11/24 02:36:31;;;;;;;65.70;23.17;;;1.90;99.90;;;;;;10445648;28;20031;-78
2022/11/24 02:41:32;;;;;;;58.83;21.23;;;1.90;99.90;;;;;;10444898;28;20230;-77
2022/11/24 02:46:33;;;;;;;70.73;23.03;;;1.90;99.90;;;;;;10444593;28;20056;-77
2022/11/24 02:51:33;;;;;;;66.93;22.77;;;1.80;99.90;;;;;;10428349;28;20196;-78
2022/11/24 02:56:34;;;;;;;60.10;21.53;;;1.80;99.90;;;;;;10445916;28;20037;-79
2022/11/24 03:01:34;;;;;;;75.40;23.67;;;1.70;99.90;;;;;;10459881;28;20361;-78
2022/11/24 03:06:35;;;;;;;77.87;24.60;;;1.70;99.90;;;;;;10470126;28;20078;-79
2022/11/24 03:11:36;;;;;;;56.53;20.43;;;1.70;99.90;;;;;;10463910;28;20071;-78
2022/11/24 03:16:37;;;;;;;59.33;21.50;;;1.60;99.90;;;;;;10463811;28;20039;-79
2022/11/24 03:21:37;;;;;;;61.57;22.57;;;1.70;99.90;;;;;;10474335;28;20029;-78
2022/11/24 03:26:38;;;;;;;60.40;22.43;;;1.80;99.90;;;;;;10470067;28;20036;-78
2022/11/24 03:31:39;;;;;;;73.00;23.47;;;1.80;99.90;;;;;;10470403;28;20604;-79
2022/11/24 03:36:39;;;;;;;53.87;20.07;;;1.90;99.90;;;;;;10484559;28;20036;-77
2022/11/24 03:41:40;;;;;;;58.43;21.70;;;1.90;99.90;;;;;;10461942;28;20043;-78
2022/11/24 03:46:41;;;;;;;67.23;22.93;;;1.90;99.90;;;;;;10470799;28;20484;-79
2022/11/24 03:51:42;;;;;;;50.13;20.83;;;1.90;99.90;;;;;;10470279;28;20071;-78
2022/11/24 03:56:43;;;;;;;60.90;22.13;;;1.90;99.90;;;;;;10463353;28;20078;-78
2022/11/24 04:01:44;;;;;;;57.90;21.90;;;2.00;99.90;;;;;;10445125;28;20053;-80
2022/11/24 04:06:44;;;;;;;65.37;21.50;;;2.00;99.90;;;;;;10464404;28;20012;-80
2022/11/24 04:17:04;;;;;;;49.40;21.57;;;2.00;99.90;;;;;;10455650;28;20037;-78
2022/11/24 04:22:05;;;;;;;53.70;19.80;;;2.00;99.90;;;;;;10458905;28;20024;-78
2022/11/24 04:27:06;;;;;;;57.80;20.97;;;2.00;99.90;;;;;;10481484;28;20032;-77
2022/11/24 04:32:07;;;;;;;50.63;18.97;;;2.00;99.90;;;;;;10442873;28;20033;-78
2022/11/24 04:37:08;;;;;;;66.20;20.43;;;1.90;99.90;;;;;;10478587;28;20032;-79
2022/11/24 04:42:09;;;;;;;57.77;21.13;;;2.00;99.90;;;;;;10454556;28;20552;-78
2022/11/24 04:47:15;;;;;;;63.10;22.03;;;1.90;99.90;;;;;;10454760;28;20056;-80
2022/11/24 04:52:21;;;;;;;59.33;20.70;;;1.90;99.90;;;;;;10466010;28;20055;-79
2022/11/24 04:57:24;;;;;;;65.40;21.98;;;1.90;99.90;;;;;;10436953;28;20175;-78
2022/11/24 05:02:25;;;;;;;47.67;17.27;;;1.90;99.90;;;;;;10443397;28;20025;-79
2022/11/24 05:07:26;;;;;;;52.07;19.03;;;2.00;99.90;;;;;;10453730;28;20040;-79
2022/11/24 05:12:30;;;;;;;48.63;18.63;;;2.00;99.90;;;;;;10436194;28;20029;-79
2022/11/24 05:17:33;;;;;;;65.23;21.73;;;2.00;99.90;;;;;;10441499;28;20037;-79
2022/11/24 05:22:34;;;;;;;59.40;20.93;;;2.00;99.90;;;;;;10451906;28;20427;-80
2022/11/24 05:27:34;;;;;;;46.13;18.37;;;2.00;99.90;;;;;;10448566;28;20033;-80
2022/11/24 05:32:35;;;;;;;49.33;18.27;;;2.00;99.90;;;;;;10482337;28;20400;-80
2022/11/24 05:37:36;;;;;;;66.67;21.90;;;2.00;99.90;;;;;;10489614;28;20103;-79
2022/11/24 05:42:39;;;;;;;55.07;22.20;;;2.00;99.90;;;;;;10489395;28;20056;-79
2022/11/24 05:47:41;;;;;;;59.40;22.37;;;2.00;99.90;;;;;;10470767;28;20058;-79
2022/11/24 05:52:42;;;;;;;57.57;21.10;;;2.00;99.90;;;;;;10488502;28;20480;-80
2022/11/24 05:57:42;;;;;;;53.37;21.13;;;2.10;99.90;;;;;;10487783;28;20017;-79
2022/11/24 06:02:43;;;;;;;76.23;28.30;;;2.10;99.90;;;;;;10476854;28;20036;-79
2022/11/24 06:07:43;;;;;;;73.87;29.53;;;2.10;99.90;;;;;;10488618;28;20047;-79
2022/11/24 06:12:44;;;;;;;63.70;23.97;;;2.10;99.90;;;;;;10488299;28;20032;-80
2022/11/24 06:17:52;;;;;;;57.40;21.63;;;2.10;99.90;;;;;;10488314;28;20032;-81
2022/11/24 06:22:53;;;;;;;55.40;22.40;;;2.10;99.90;;;;;;10488158;28;20089;-80
2022/11/24 06:27:54;;;;;;;64.63;23.93;;;2.10;99.90;;;;;;10487659;28;20032;-79
2022/11/24 06:32:54;;;;;;;65.13;24.10;;;2.10;99.90;;;;;;10486847;28;20040;-79
2022/11/24 06:37:55;;;;;;;61.20;22.57;;;2.10;99.90;;;;;;10487095;28;20056;-79
2022/11/24 06:42:55;;;;;;;68.80;24.60;;;2.10;99.90;;;;;;10486834;28;20025;-79
2022/11/24 06:47:56;;;;;;;71.87;28.87;;;2.10;99.90;;;;;;10486469;28;20052;-79
2022/11/24 06:52:56;;;;;;;72.80;29.17;;;2.20;99.90;;;;;;10487188;28;20036;-79
2022/11/24 06:57:57;;;;;;;69.50;27.73;;;2.20;99.90;;;;;;10482930;28;20522;-79
2022/11/24 07:02:59;;;;;;;53.43;22.93;;;2.20;99.90;;;;;;10475260;28;20029;-79
2022/11/24 07:08:00;;;;;;;56.97;22.53;;;2.20;99.90;;;;;;10486455;28;20033;-79
2022/11/24 07:13:02;;;;;;;66.20;27.00;;;2.30;99.90;;;;;;10485788;28;20044;-80
2022/11/24 07:18:03;;;;;;;59.57;24.80;;;2.30;99.90;;;;;;10485233;28;20785;-79
2022/11/24 07:23:03;;;;;;;53.10;21.07;;;2.30;99.90;;;;;;10485217;28;20025;-79
2022/11/24 07:28:04;;;;;;;48.87;21.57;;;2.20;99.90;;;;;;10485087;28;20020;-80
2022/11/24 07:33:05;;;;;;;55.00;22.70;;;2.20;99.90;;;;;;10484722;28;20071;-79
2022/11/24 07:38:05;;;;;;;54.73;22.90;;;2.20;99.90;;;;;;10484624;28;20032;-80
2022/11/24 07:43:06;;;;;;;61.33;24.90;;;2.30;99.90;;;;;;10483865;28;20500;-79
2022/11/24 07:48:06;;;;;;;66.73;30.07;;;2.20;99.90;;;;;;10484371;28;20063;-80
2022/11/24 07:53:07;;;;;;;73.60;30.00;;;2.20;99.90;;;;;;10484190;28;20472;-79
2022/11/24 07:58:07;;;;;;;74.43;31.53;;;2.30;99.90;;;;;;10479024;28;20039;-80
2022/11/24 08:03:08;;;;;;;80.13;36.43;;;2.30;99.90;;;;;;10474711;28;20594;-80
2022/11/24 08:08:08;;;;;;;81.67;39.73;;;2.30;99.90;;;;;;10483512;28;20039;-79
2022/11/24 08:13:09;;;;;;;93.90;45.53;;;2.40;99.90;;;;;;10484335;28;20577;-79
2022/11/24 08:18:10;;;;;;;82.27;38.37;;;2.40;99.90;;;;;;10483661;28;20037;-80
2022/11/24 08:23:11;;;;;;;82.40;39.00;;;2.40;99.90;;;;;;10483513;28;20029;-79
2022/11/24 08:28:11;;;;;;;64.40;27.27;;;2.40;99.90;;;;;;10483293;28;20480;-79
2022/11/24 08:33:12;;;;;;;57.33;27.10;;;2.30;99.90;;;;;;10483494;28;20049;-79
2022/11/24 08:38:12;;;;;;;58.30;25.23;;;2.30;99.90;;;;;;10483934;28;20426;-79
2022/11/24 08:43:13;;;;;;;70.40;29.97;;;2.20;99.90;;;;;;10465157;28;20107;-79
2022/11/24 08:48:13;;;;;;;79.47;34.67;;;2.20;99.90;;;;;;10482979;28;20057;-79
2022/11/24 08:53:14;;;;;;;78.93;34.57;;;2.10;99.90;;;;;;10483320;28;20585;-79
2022/11/24 08:58:15;;;;;;;65.83;29.03;;;2.20;99.90;;;;;;10482717;28;20109;-79
2022/11/24 09:03:15;;;;;;;79.10;34.60;;;2.10;99.90;;;;;;10483403;28;20148;-79
2022/11/24 09:08:16;;;;;;;109.83;48.73;;;2.10;99.90;;;;;;10491450;28;20031;-79
2022/11/24 09:13:17;;;;;;;109.47;48.40;;;2.20;99.90;;;;;;10490279;28;20036;-79
2022/11/24 09:18:17;;;;;;;99.63;39.33;;;2.20;99.90;;;;;;10491131;28;20036;-80
2022/11/24 09:23:18;;;;;;;105.37;46.67;;;2.10;99.90;;;;;;10490455;28;20036;-79
2022/11/24 09:28:18;;;;;;;171.60;77.07;;;2.10;99.90;;;;;;10490394;28;20038;-79
2022/11/24 09:33:19;;;;;;;157.13;72.93;;;2.10;99.90;;;;;;10490273;28;20039;-79
2022/11/24 09:38:19;;;;;;;130.93;55.13;;;2.00;99.90;;;;;;10475756;28;20461;-80
2022/11/24 09:43:55;;;;;;;181.67;74.70;;;2.00;99.90;;;;;;10488994;28;20036;-81
2022/11/24 09:48:57;;;;;;;101.83;44.87;;;2.00;99.90;;;;;;10420420;28;20040;-80
2022/11/24 09:54:09;;;;;;;110.73;47.83;;;2.00;99.90;;;;;;10489083;28;20064;-80
2022/11/24 09:59:21;;;;;;;127.40;53.73;;;2.00;99.90;;;;;;10475337;28;20036;-80
2022/11/24 10:04:27;;;;;;;138.20;62.63;;;2.00;99.90;;;;;;10462560;28;20030;-80
2022/11/24 10:09:27;;;;;;;127.38;53.08;;;2.00;99.90;;;;;;10488726;28;20024;-81
2022/11/24 10:14:31;;;;;;;81.30;33.07;;;1.90;99.90;;;;;;10488530;28;20030;-79
2022/11/24 10:19:44;;;;;;;80.57;31.70;;;2.00;99.90;;;;;;10487722;28;20027;-81
2022/11/24 10:25:06;;;;;;;85.13;32.37;;;2.00;99.90;;;;;;10488002;28;20028;-79
2022/11/24 10:30:14;;;;;;;84.33;33.13;;;2.00;99.90;;;;;;10487248;28;20029;-80
2022/11/24 10:35:16;;;;;;;90.90;34.37;;;2.00;99.90;;;;;;10487627;28;20024;-80
2022/11/24 10:40:32;;;;;;;95.73;35.77;;;1.90;99.90;;;;;;10486981;28;20028;-81
2022/11/24 10:45:36;;;;;;;139.77;51.38;;;1.90;99.90;;;;;;10487159;28;20048;-81
2022/11/24 10:50:39;;;;;;;126.20;44.90;;;1.80;99.90;;;;;;10487025;28;20037;-79
2022/11/24 10:55:55;;;;;;;118.27;41.77;;;1.90;99.90;;;;;;10484521;28;20031;-81
2022/11/24 11:00:59;;;;;;;143.43;52.20;;;1.90;99.90;;;;;;10472720;28;20411;-80
2022/11/24 11:06:06;;;;;;;128.27;46.10;;;1.90;99.90;;;;;;10486491;28;20651;-80
2022/11/24 11:11:19;;;;;;;114.67;38.10;;;1.90;99.90;;;;;;10486508;28;20506;-81
2022/11/24 11:17:04;;;;;;;73.80;26.83;;;1.90;99.90;;;;;;10485808;28;20036;-81
2022/11/24 11:22:10;;;;;;;87.03;28.80;;;1.90;99.90;;;;;;10452771;28;20063;-81
2022/11/24 11:27:23;;;;;;;84.00;28.63;;;1.80;99.90;;;;;;10478061;28;20025;-80
2022/11/24 11:32:26;;;;;;;79.13;27.07;;;1.80;99.90;;;;;;10485300;28;20127;-80
2022/11/24 11:37:31;;;;;;;75.40;26.33;;;1.80;99.90;;;;;;10484645;28;20111;-80
2022/11/24 11:42:32;;;;;;;69.70;25.97;;;1.80;99.90;;;;;;10466659;28;20024;-80
2022/11/24 11:47:49;;;;;;;81.87;28.50;;;1.80;99.90;;;;;;10484974;28;20059;-81
2022/11/24 11:53:08;;;;;;;89.40;29.83;;;1.70;99.90;;;;;;10484034;28;20063;-80
2022/11/24 11:58:42;;;;;;;104.43;40.23;;;1.80;99.90;;;;;;10479448;28;20039;-81
2022/11/24 12:03:57;;;;;;;93.37;33.33;;;1.80;99.90;;;;;;10479544;28;20568;-81
2022/11/24 12:09:32;;;;;;;83.50;29.57;;;1.90;99.90;;;;;;10484611;28;20048;-80
2022/11/24 12:14:50;;;;;;;67.30;26.30;;;1.90;99.90;;;;;;10483424;28;20066;-81
2022/11/24 12:20:02;;;;;;;75.60;29.20;;;1.90;99.90;;;;;;10483318;28;20017;-81
2022/11/24 12:25:21;;;;;;;82.17;28.53;;;1.90;99.90;;;;;;10483467;28;20674;-81
2022/11/24 12:30:22;;;;;;;72.00;23.47;;;1.90;99.90;;;;;;10482895;28;20033;-82
2022/11/24 12:35:34;;;;;;;72.70;26.60;;;1.90;99.90;;;;;;10483170;28;20875;-81
2022/11/24 12:40:47;;;;;;;67.70;25.37;;;1.90;99.90;;;;;;10483182;28;20021;-81
2022/11/24 12:46:05;;;;;;;73.10;26.53;;;1.90;99.90;;;;;;10483533;28;20051;-81
2022/11/24 12:51:21;;;;;;;73.63;27.53;;;1.90;99.90;;;;;;10483553;28;20032;-81
2022/11/24 12:56:41;;;;;;;80.57;27.90;;;1.90;99.90;;;;;;10472622;28;20063;-83
2022/11/24 13:01:58;;;;;;;79.03;25.83;;;1.90;99.90;;;;;;10469194;28;20059;-81
2022/11/24 13:06:58;;;;;;;;;;;1.90;99.90;;;;;;10483690;28;20024;-83
2022/11/24 13:12:25;;;;;;;79.90;27.53;;;1.90;99.90;;;;;;10482609;28;20375;-81
2022/11/24 13:17:30;;;;;;;76.13;27.33;;;1.90;99.90;;;;;;10462807;28;20072;-81
2022/11/24 13:22:31;;;;;;;84.33;29.07;;;1.90;99.90;;;;;;10457443;28;20079;-82
2022/11/24 13:27:41;;;;;;;87.33;28.97;;;1.90;99.90;;;;;;10457213;28;20037;-82
2022/11/24 13:32:41;;;;;;;86.57;27.67;;;1.80;99.90;;;;;;10462539;28;20769;-81
2022/11/24 13:37:42;;;;;;;70.23;26.07;;;1.80;99.90;;;;;;10476314;28;20039;-82
2022/11/24 13:43:02;;;;;;;77.33;26.30;;;1.80;99.90;;;;;;10474738;28;20037;-80
2022/11/24 13:48:18;;;;;;;75.43;26.67;;;1.80;99.90;;;;;;10454679;28;20060;-85
2022/11/24 13:53:30;;;;;;;87.55;28.15;;;1.70;99.90;;;;;;10450708;28;20102;-79
2022/11/24 13:58:50;;;;;;;72.73;25.57;;;1.70;99.90;;;;;;10448716;28;20033;-82
2022/11/24 14:04:00;;;;;;;85.00;28.63;;;1.70;99.90;;;;;;10485688;28;20059;-81
2022/11/24 14:09:14;;;;;;;92.27;29.43;;;1.70;99.90;;;;;;10474379;28;20056;-81
2022/11/24 14:14:19;;;;;;;82.30;28.23;;;1.70;99.90;;;;;;10456137;28;20139;-81
2022/11/24 14:19:20;;;;;;;74.53;26.10;;;1.60;99.90;;;;;;10466358;28;20111;-82
2022/11/24 14:24:22;;;;;;;76.63;25.50;;;1.60;99.90;;;;;;10488128;28;20524;-82
2022/11/24 14:29:24;;;;;;;86.00;27.27;;;1.60;99.90;;;;;;10487145;28;20478;-83
2022/11/24 14:34:27;;;;;;;71.17;23.57;;;1.50;99.90;;;;;;10487273;28;20039;-81
2022/11/24 14:39:29;;;;;;;78.20;24.97;;;1.60;99.90;;;;;;10487629;28;20480;-82
2022/11/24 14:45:01;;;;;;;79.93;26.37;;;1.50;99.90;;;;;;10487176;28;20048;-82
2022/11/24 14:50:10;;;;;;;75.43;25.13;;;1.50;99.90;;;;;;10487465;28;20040;-83
2022/11/24 14:55:29;;;;;;;73.07;26.03;;;1.50;99.90;;;;;;10486948;28;20463;-84
2022/11/24 15:00:31;;;;;;;76.20;25.20;;;1.60;99.90;;;;;;10472685;28;20016;-82
2022/11/24 15:05:50;;;;;;;89.07;29.90;;;1.50;99.90;;;;;;10487042;28;20033;-82
2022/11/24 15:11:00;;;;;;;114.77;39.20;;;1.50;99.90;;;;;;10472493;28;20029;-83
2022/11/24 15:16:05;;;;;;;159.13;58.17;;;1.50;99.90;;;;;;10485963;28;20054;-83
2022/11/24 15:21:06;;;;;;;170.93;61.73;;;1.50;99.90;;;;;;10467427;28;20598;-83
2022/11/24 15:26:09;;;;;;;134.43;48.30;;;1.50;99.90;;;;;;10485193;28;20029;-83
2022/11/24 15:31:12;;;;;;;127.73;41.10;;;1.50;99.90;;;;;;10485665;28;20037;-83
2022/11/24 15:36:15;;;;;;;90.10;32.17;;;1.50;99.90;;;;;;10484852;28;20433;-83
2022/11/24 15:41:20;;;;;;;109.80;37.50;;;1.50;99.90;;;;;;10484974;28;20037;-83
2022/11/24 15:46:21;;;;;;;85.37;29.87;;;1.50;99.90;;;;;;10467787;28;20106;-84
2022/11/24 15:51:25;;;;;;;112.27;43.03;;;1.50;99.90;;;;;;10458385;28;20044;-85
2022/11/24 15:56:31;;;;;;;164.73;53.43;;;1.50;99.90;;;;;;10464335;28;20762;-88
2022/11/24 16:01:32;;;;;;;141.10;43.80;;;1.50;99.90;;;;;;10453518;28;20117;-84
2022/11/24 16:06:33;;;;;;;155.47;52.60;;;1.50;99.90;;;;;;10450639;28;20814;-84
2022/11/24 16:11:33;;;;;;;258.23;86.17;;;1.50;99.90;;;;;;10454816;28;20044;-87
2022/11/24 16:16:34;;;;;;;263.50;91.13;;;1.50;99.90;;;;;;10465670;28;20075;-85
2022/11/24 16:21:34;;;;;;;337.03;115.77;;;1.50;99.90;;;;;;10484160;28;20032;-81
2022/11/24 16:26:35;;;;;;;291.43;113.17;;;1.50;99.90;;;;;;10475999;28;20032;-83
2022/11/24 16:31:36;;;;;;;513.33;186.70;;;1.50;99.90;;;;;;10458214;28;20079;-85
2022/11/24 16:36:37;;;;;;;394.07;150.63;;;1.40;99.90;;;;;;10483715;28;20068;-85
2022/11/24 16:41:37;;;;;;;305.73;121.07;;;1.40;99.90;;;;;;10445926;28;20126;-82
2022/11/24 16:46:38;;;;;;;344.13;131.00;;;1.50;99.90;;;;;;10436175;28;20049;-82
2022/11/24 16:51:38;;;;;;;317.07;124.63;;;1.50;99.90;;;;;;10446383;28;20045;-86
2022/11/24 16:56:39;;;;;;;408.13;154.73;;;1.50;99.90;;;;;;10464097;28;20427;-83
2022/11/24 17:01:39;;;;;;;450.67;167.13;;;1.50;99.90;;;;;;10453755;28;20111;-87
2022/11/24 17:06:41;;;;;;;500.43;188.70;;;1.50;99.90;;;;;;10434660;28;20040;-82
2022/11/24 17:11:52;;;;;;;421.20;155.53;;;1.50;99.90;;;;;;10435335;28;20036;-85
2022/11/24 17:17:05;;;;;;;472.70;167.77;;;1.50;99.90;;;;;;10429974;28;20044;-86
2022/11/24 17:22:05;;;;;;;455.97;181.03;;;1.50;99.90;;;;;;10436123;28;20067;-86
2022/11/24 17:27:06;;;;;;;463.50;185.70;;;1.50;99.90;;;;;;10451701;28;20132;-83
2022/11/24 17:32:06;;;;;;;405.60;160.80;;;1.50;99.90;;;;;;10452431;28;20438;-84
2022/11/24 17:37:07;;;;;;;450.40;169.33;;;1.50;99.90;;;;;;10441989;28;20025;-83
2022/11/24 17:42:07;;;;;;;345.50;135.63;;;1.50;99.90;;;;;;10431411;28;20036;-84
2022/11/24 17:47:08;;;;;;;383.93;149.53;;;1.40;99.90;;;;;;10456248;28;20099;-84
2022/11/24 17:52:09;;;;;;;349.33;126.90;;;1.50;99.90;;;;;;10430730;28;20423;-84
2022/11/24 17:57:09;;;;;;;357.67;134.53;;;1.50;99.90;;;;;;10467464;28;20120;-85
2022/11/24 18:02:10;;;;;;;383.40;150.20;;;1.50;99.90;;;;;;10478815;28;20147;-86
2022/11/24 18:07:10;;;;;;;505.23;200.17;;;1.50;99.90;;;;;;10454915;28;20035;-83
2022/11/24 18:12:11;;;;;;;400.60;160.27;;;1.50;99.90;;;;;;10465280;28;20131;-85
2022/11/24 18:17:12;;;;;;;436.07;167.53;;;1.50;99.90;;;;;;10450815;28;20651;-85
2022/11/24 18:22:12;;;;;;;337.77;121.47;;;1.50;99.90;;;;;;10444060;28;20041;-84
2022/11/24 18:27:13;;;;;;;369.10;135.73;;;1.50;99.90;;;;;;10442476;28;20187;-85
2022/11/24 18:32:13;;;;;;;426.40;151.20;;;1.50;99.90;;;;;;10443915;28;20168;-87
2022/11/24 18:37:15;;;;;;;366.40;139.80;;;1.50;99.90;;;;;;10440243;28;20025;-84
2022/11/24 18:42:16;;;;;;;393.40;152.63;;;1.50;99.90;;;;;;10456182;28;20044;-82
2022/11/24 18:47:17;;;;;;;413.33;145.87;;;1.50;99.90;;;;;;10455212;28;20566;-85
2022/11/24 18:52:18;;;;;;;323.77;112.87;;;1.50;99.90;;;;;;10453500;28;20044;-84
2022/11/24 18:57:18;;;;;;;314.60;106.73;;;1.50;99.90;;;;;;10449956;28;20033;-87
2022/11/24 19:02:19;;;;;;;345.17;115.53;;;1.50;99.90;;;;;;10458501;28;20032;-84
2022/11/24 19:07:19;;;;;;;330.13;111.80;;;1.50;99.90;;;;;;10454411;28;20040;-84
2022/11/24 19:12:20;;;;;;;338.93;117.47;;;1.50;99.90;;;;;;10443733;28;20138;-85
2022/11/24 19:17:21;;;;;;;311.17;103.03;;;1.50;99.90;;;;;;10458809;28;20067;-84
2022/11/24 19:22:21;;;;;;;368.73;117.53;;;1.50;99.90;;;;;;10475654;28;20024;-84
2022/11/24 19:27:22;;;;;;;315.73;114.53;;;1.50;99.90;;;;;;10448113;28;20037;-84
2022/11/24 19:32:22;;;;;;;337.57;116.97;;;1.50;99.90;;;;;;10459435;28;20044;-87
2022/11/24 19:37:23;;;;;;;359.57;129.97;;;1.50;99.90;;;;;;10469571;28;20037;-86
2022/11/24 19:42:23;;;;;;;469.93;177.00;;;1.50;99.90;;;;;;10430159;28;20040;-83
2022/11/24 19:47:24;;;;;;;487.30;179.53;;;1.50;99.90;;;;;;10438956;28;20060;-83
2022/11/24 19:52:24;;;;;;;456.93;161.33;;;1.50;99.90;;;;;;10465599;28;20045;-82
2022/11/24 19:57:25;;;;;;;387.23;144.77;;;1.50;99.90;;;;;;10448613;28;20032;-83
2022/11/24 20:02:28;;;;;;;316.83;106.13;;;1.50;99.90;;;;;;10449110;28;20122;-86
2022/11/24 20:07:28;;;;;;;337.30;99.87;;;1.50;99.90;;;;;;10454049;28;20059;-87
2022/11/24 20:12:30;;;;;;;258.47;79.93;;;1.50;99.90;;;;;;10470319;28;20118;-86
2022/11/24 20:17:31;;;;;;;251.30;76.67;;;1.50;99.90;;;;;;10445054;28;20052;-88
2022/11/24 20:22:32;;;;;;;242.20;77.30;;;1.50;99.90;;;;;;10451520;28;20090;-84
2022/11/24 20:27:32;;;;;;;284.27;97.97;;;1.50;99.90;;;;;;10480579;28;20060;-87
2022/11/24 20:32:33;;;;;;;289.67;95.07;;;1.50;99.90;;;;;;10454678;28;20044;-86
2022/11/24 20:37:33;;;;;;;381.90;134.10;;;1.50;99.90;;;;;;10451501;28;20059;-84
2022/11/24 20:42:36;;;;;;;445.03;165.43;;;1.50;99.90;;;;;;10475116;28;20037;-84
2022/11/24 20:47:36;;;;;;;585.47;223.30;;;1.50;99.90;;;;;;10458234;28;20111;-83
2022/11/24 20:52:37;;;;;;;431.40;152.47;;;1.50;99.90;;;;;;10466663;28;20044;-87
2022/11/24 20:57:37;;;;;;;355.77;120.07;;;1.50;99.90;;;;;;10491195;28;20029;-84
2022/11/24 21:02:38;;;;;;;402.80;127.30;;;1.50;99.90;;;;;;10455265;28;20033;-84
2022/11/24 21:07:38;;;;;;;381.03;123.00;;;1.50;99.90;;;;;;10473088;28;20110;-86
2022/11/24 21:12:39;;;;;;;359.00;121.37;;;1.40;99.90;;;;;;10471170;28;20123;-86
2022/11/24 21:17:39;;;;;;;309.93;108.07;;;1.50;99.90;;;;;;10475068;28;20034;-84
2022/11/24 21:22:40;;;;;;;386.60;131.27;;;1.50;99.90;;;;;;10458271;28;20032;-85
2022/11/24 21:27:40;;;;;;;395.13;146.60;;;1.50;99.90;;;;;;10466490;28;20093;-84
2022/11/24 21:32:41;;;;;;;375.57;135.93;;;1.50;99.90;;;;;;10465005;28;20384;-84
2022/11/24 21:37:41;;;;;;;429.13;148.57;;;1.50;99.90;;;;;;10467802;28;20476;-84
2022/11/24 21:42:42;;;;;;;360.93;125.73;;;1.50;99.90;;;;;;10478916;28;20046;-86
2022/11/24 21:47:45;;;;;;;325.50;124.40;;;1.50;99.90;;;;;;10477863;28;20127;-84
2022/11/24 21:52:45;;;;;;;423.37;138.20;;;1.50;99.90;;;;;;10466070;28;20129;-86
2022/11/24 21:57:46;;;;;;;335.90;112.87;;;1.50;99.90;;;;;;10489533;28;20170;-84
2022/11/24 22:02:47;;;;;;;438.53;142.37;;;1.40;99.90;;;;;;10461120;28;20028;-83
2022/11/24 22:07:49;;;;;;;410.57;141.83;;;1.40;99.90;;;;;;10467812;28;20052;-84
2022/11/24 22:12:49;;;;;;;503.37;173.10;;;1.30;99.90;;;;;;10482517;28;20147;-83
2022/11/24 22:17:50;;;;;;;391.13;139.63;;;1.30;99.90;;;;;;10476118;28;20044;-83
2022/11/24 22:22:51;;;;;;;472.87;158.13;;;1.30;99.90;;;;;;10474878;28;20051;-83
2022/11/24 22:27:51;;;;;;;457.33;150.50;;;1.30;99.90;;;;;;10486974;28;20082;-83
2022/11/24 22:32:53;;;;;;;479.87;172.83;;;1.30;99.90;;;;;;10449367;28;20041;-86
2022/11/24 22:37:53;;;;;;;407.83;128.47;;;1.30;99.90;;;;;;10460326;28;20024;-84
2022/11/24 22:42:54;;;;;;;479.57;148.40;;;1.30;99.90;;;;;;10468423;28;20037;-83
2022/11/24 22:47:54;;;;;;;424.97;136.47;;;1.30;99.90;;;;;;10451757;28;20056;-86
2022/11/24 22:52:55;;;;;;;429.07;138.20;;;1.40;99.90;;;;;;10466637;28;20822;-84
2022/11/24 22:57:55;;;;;;;380.33;124.07;;;1.40;99.90;;;;;;10486548;28;20035;-84
2022/11/24 23:02:56;;;;;;;425.83;138.13;;;1.40;99.90;;;;;;10470210;28;20036;-84
2022/11/24 23:07:56;;;;;;;438.27;138.97;;;1.50;99.90;;;;;;10464937;28;20516;-85
2022/11/24 23:12:57;;;;;;;451.60;145.70;;;1.50;99.90;;;;;;10472342;28;20152;-86
2022/11/24 23:17:57;;;;;;;463.33;141.87;;;1.50;99.90;;;;;;10450482;28;20108;-84
2022/11/24 23:22:58;;;;;;;408.27;127.90;;;1.50;99.90;;;;;;10472241;28;20036;-83
2022/11/24 23:27:59;;;;;;;531.87;149.13;;;1.50;99.90;;;;;;10464232;28;20059;-83
2022/11/24 23:32:59;;;;;;;314.43;111.27;;;1.40;99.90;;;;;;10440050;28;20071;-83
2022/11/24 23:37:59;;;;;;;393.13;123.87;;;1.40;99.90;;;;;;10468396;28;20105;-83
2022/11/24 23:43:00;;;;;;;421.37;129.43;;;1.40;99.90;;;;;;10476624;28;20029;-83
2022/11/24 23:48:01;;;;;;;392.33;125.37;;;1.40;99.90;;;;;;10470108;28;20056;-84
2022/11/24 23:53:01;;;;;;;380.77;126.33;;;1.40;99.90;;;;;;10469655;28;20041;-83
2022/11/24 23:58:02;;;;;;;409.10;128.30;;;1.50;99.90;;;;;;10461358;28;20060;-83
